sensor_id;sensor_type;location;lat;lon;timestamp;temperature;humidity
45983;DHT22;31711;47.158;7.346;2024-01-30T00:02:13;1.30;99.90
45983;DHT22;31711;47.158;7.346;2024-01-30T00:04:39;1.30;99.90
45983;DHT22;31711;47.158;7.346;2024-01-30T00:07:05;1.20;99.90
45983;DHT22;31711;47.158;7.346;2024-01-30T00:09:31;1.20;99.90
45983;DHT22;31711;47.158;7.346;2024-01-30T00:11:57;1.10;99.90
45983;DHT22;31711;47.158;7.346;2024-01-30T00:14:23;1.10;99.90
45983;DHT22;31711;47.158;7.346;2024-01-30T00:16:49;1.10;99.90
45983;DHT22;31711;47.158;7.346;2024-01-30T00:19:14;1.00;99.90
45983;DHT22;31711;47.158;7.346;2024-01-30T00:21:40;0.90;99.90
45983;DHT22;31711;47.158;7.346;2024-01-30T00:24:07;0.80;99.90
45983;DHT22;31711;47.158;7.346;2024-01-30T00:26:33;0.90;99.90
45983;DHT22;31711;47.158;7.346;2024-01-30T00:28:59;0.80;99.90
45983;DHT22;31711;47.158;7.346;2024-01-30T00:31:24;0.80;99.90
45983;DHT22;31711;47.158;7.346;2024-01-30T00:33:50;0.80;99.90
45983;DHT22;31711;47.158;7.346;2024-01-30T00:36:16;0.70;99.90
45983;DHT22;31711;47.158;7.346;2024-01-30T00:38:42;0.70;99.90
45983;DHT22;31711;47.158;7.346;2024-01-30T00:41:09;0.70;99.90
45983;DHT22;31711;47.158;7.346;2024-01-30T00:43:35;0.60;99.90
45983;DHT22;31711;47.158;7.346;2024-01-30T00:46:01;0.70;99.90
45983;DHT22;31711;47.158;7.346;2024-01-30T00:48:27;0.60;99.90
45983;DHT22;31711;47.158;7.346;2024-01-30T00:50:53;0.50;99.90
45983;DHT22;31711;47.158;7.346;2024-01-30T00:53:19;0.50;99.90
45983;DHT22;31711;47.158;7.346;2024-01-30T00:55:45;0.50;99.90
45983;DHT22;31711;47.158;7.346;2024-01-30T00:58:11;0.40;99.90
45983;DHT22;31711;47.158;7.346;2024-01-30T01:00:37;0.40;99.90
45983;DHT22;31711;47.158;7.346;2024-01-30T01:03:03;0.40;99.90
45983;DHT22;31711;47.158;7.346;2024-01-30T01:05:32;0.40;99.90
45983;DHT22;31711;47.158;7.346;2024-01-30T01:07:58;0.50;99.90
45983;DHT22;31711;47.158;7.346;2024-01-30T01:10:24;0.50;99.90
45983;DHT22;31711;47.158;7.346;2024-01-30T01:12:50;0.50;99.90
45983;DHT22;31711;47.158;7.346;2024-01-30T01:15:16;0.50;99.90
45983;DHT22;31711;47.158;7.346;2024-01-30T01:17:42;0.40;99.90
45983;DHT22;31711;47.158;7.346;2024-01-30T01:20:08;0.40;99.90
45983;DHT22;31711;47.158;7.346;2024-01-30T01:22:36;0.40;99.90
45983;DHT22;31711;47.158;7.346;2024-01-30T01:25:04;0.40;99.90
45983;DHT22;31711;47.158;7.346;2024-01-30T01:27:34;0.40;99.90
45983;DHT22;31711;47.158;7.346;2024-01-30T01:30:04;0.50;99.90
45983;DHT22;31711;47.158;7.346;2024-01-30T01:32:31;0.50;99.90
45983;DHT22;31711;47.158;7.346;2024-01-30T01:34:57;0.50;99.90
45983;DHT22;31711;47.158;7.346;2024-01-30T01:37:23;0.50;99.90
45983;DHT22;31711;47.158;7.346;2024-01-30T01:39:52;0.50;99.90
45983;DHT22;31711;47.158;7.346;2024-01-30T01:42:18;0.60;99.90
45983;DHT22;31711;47.158;7.346;2024-01-30T01:44:44;0.60;99.90
45983;DHT22;31711;47.158;7.346;2024-01-30T01:47:10;0.50;99.90
45983;DHT22;31711;47.158;7.346;2024-01-30T01:49:36;0.50;99.90
45983;DHT22;31711;47.158;7.346;2024-01-30T01:52:03;0.60;99.90
45983;DHT22;31711;47.158;7.346;2024-01-30T01:54:29;0.50;99.90
45983;DHT22;31711;47.158;7.346;2024-01-30T01:56:55;0.50;99.90
45983;DHT22;31711;47.158;7.346;2024-01-30T01:59:22;0.50;99.90
45983;DHT22;31711;47.158;7.346;2024-01-30T02:01:48;0.50;99.90
45983;DHT22;31711;47.158;7.346;2024-01-30T02:04:15;0.40;99.90
45983;DHT22;31711;47.158;7.346;2024-01-30T02:06:43;0.40;99.90
45983;DHT22;31711;47.158;7.346;2024-01-30T02:09:09;0.40;99.90
45983;DHT22;31711;47.158;7.346;2024-01-30T02:11:35;0.40;99.90
45983;DHT22;31711;47.158;7.346;2024-01-30T02:14:04;0.50;99.90
45983;DHT22;31711;47.158;7.346;2024-01-30T02:16:31;0.50;99.90
45983;DHT22;31711;47.158;7.346;2024-01-30T02:18:57;0.50;99.90
45983;DHT22;31711;47.158;7.346;2024-01-30T02:21:23;0.40;99.90
45983;DHT22;31711;47.158;7.346;2024-01-30T02:23:50;0.50;99.90
45983;DHT22;31711;47.158;7.346;2024-01-30T02:26:18;0.40;99.90
45983;DHT22;31711;47.158;7.346;2024-01-30T02:28:44;0.40;99.90
45983;DHT22;31711;47.158;7.346;2024-01-30T02:31:10;0.40;99.90
45983;DHT22;31711;47.158;7.346;2024-01-30T02:33:35;0.50;99.90
45983;DHT22;31711;47.158;7.346;2024-01-30T02:36:02;0.50;99.90
45983;DHT22;31711;47.158;7.346;2024-01-30T02:38:28;0.50;99.90
45983;DHT22;31711;47.158;7.346;2024-01-30T02:40:54;0.40;99.90
45983;DHT22;31711;47.158;7.346;2024-01-30T02:43:21;0.40;99.90
45983;DHT22;31711;47.158;7.346;2024-01-30T02:45:47;0.30;99.90
45983;DHT22;31711;47.158;7.346;2024-01-30T02:48:13;0.30;99.90
45983;DHT22;31711;47.158;7.346;2024-01-30T02:50:39;0.30;99.90
45983;DHT22;31711;47.158;7.346;2024-01-30T02:53:05;0.30;99.90
45983;DHT22;31711;47.158;7.346;2024-01-30T02:55:30;0.30;99.90
45983;DHT22;31711;47.158;7.346;2024-01-30T02:57:56;0.30;99.90
45983;DHT22;31711;47.158;7.346;2024-01-30T03:00:24;0.30;99.90
45983;DHT22;31711;47.158;7.346;2024-01-30T03:02:50;0.30;99.90
45983;DHT22;31711;47.158;7.346;2024-01-30T03:05:16;0.20;99.90
45983;DHT22;31711;47.158;7.346;2024-01-30T03:07:42;0.20;99.90
45983;DHT22;31711;47.158;7.346;2024-01-30T03:10:08;0.20;99.90
45983;DHT22;31711;47.158;7.346;2024-01-30T03:12:34;0.10;99.90
45983;DHT22;31711;47.158;7.346;2024-01-30T03:15:00;0.10;99.90
45983;DHT22;31711;47.158;7.346;2024-01-30T03:17:26;0.00;99.90
45983;DHT22;31711;47.158;7.346;2024-01-30T03:19:52;0.00;99.90
45983;DHT22;31711;47.158;7.346;2024-01-30T03:22:18;0.00;99.90
45983;DHT22;31711;47.158;7.346;2024-01-30T03:24:44;0.00;99.90
45983;DHT22;31711;47.158;7.346;2024-01-30T03:27:10;0.00;99.90
45983;DHT22;31711;47.158;7.346;2024-01-30T03:29:36;0.00;99.90
45983;DHT22;31711;47.158;7.346;2024-01-30T03:32:02;-0.10;99.90
45983;DHT22;31711;47.158;7.346;2024-01-30T03:34:29;-0.10;99.90
45983;DHT22;31711;47.158;7.346;2024-01-30T03:36:55;-0.10;99.90
45983;DHT22;31711;47.158;7.346;2024-01-30T03:39:21;-0.10;99.90
45983;DHT22;31711;47.158;7.346;2024-01-30T03:41:47;0.00;99.90
45983;DHT22;31711;47.158;7.346;2024-01-30T03:44:13;0.00;99.90
45983;DHT22;31711;47.158;7.346;2024-01-30T03:46:39;0.10;99.90
45983;DHT22;31711;47.158;7.346;2024-01-30T03:49:05;0.10;99.90
45983;DHT22;31711;47.158;7.346;2024-01-30T03:51:31;0.10;99.90
45983;DHT22;31711;47.158;7.346;2024-01-30T03:53:57;0.10;99.90
45983;DHT22;31711;47.158;7.346;2024-01-30T03:56:23;0.20;99.90
45983;DHT22;31711;47.158;7.346;2024-01-30T03:58:51;0.10;99.90
45983;DHT22;31711;47.158;7.346;2024-01-30T04:01:17;0.10;99.90
45983;DHT22;31711;47.158;7.346;2024-01-30T04:03:43;0.10;99.90
45983;DHT22;31711;47.158;7.346;2024-01-30T04:06:10;0.20;99.90
45983;DHT22;31711;47.158;7.346;2024-01-30T04:08:37;0.20;99.90
45983;DHT22;31711;47.158;7.346;2024-01-30T04:11:04;0.20;99.90
45983;DHT22;31711;47.158;7.346;2024-01-30T04:13:34;0.10;99.90
45983;DHT22;31711;47.158;7.346;2024-01-30T04:16:01;0.10;99.90
45983;DHT22;31711;47.158;7.346;2024-01-30T04:18:29;0.10;99.90
45983;DHT22;31711;47.158;7.346;2024-01-30T04:20:55;0.10;99.90
45983;DHT22;31711;47.158;7.346;2024-01-30T04:23:21;0.10;99.90
45983;DHT22;31711;47.158;7.346;2024-01-30T04:25:47;0.10;99.90
45983;DHT22;31711;47.158;7.346;2024-01-30T04:28:13;0.10;99.90
45983;DHT22;31711;47.158;7.346;2024-01-30T04:30:39;0.10;99.90
45983;DHT22;31711;47.158;7.346;2024-01-30T04:33:05;0.10;99.90
45983;DHT22;31711;47.158;7.346;2024-01-30T04:35:31;0.10;99.90
45983;DHT22;31711;47.158;7.346;2024-01-30T04:37:57;0.10;99.90
45983;DHT22;31711;47.158;7.346;2024-01-30T04:40:23;0.10;99.90
45983;DHT22;31711;47.158;7.346;2024-01-30T04:42:49;0.10;99.90
45983;DHT22;31711;47.158;7.346;2024-01-30T04:45:15;0.10;99.90
45983;DHT22;31711;47.158;7.346;2024-01-30T04:47:41;0.10;99.90
45983;DHT22;31711;47.158;7.346;2024-01-30T04:50:07;0.00;99.90
45983;DHT22;31711;47.158;7.346;2024-01-30T04:52:34;0.00;99.90
45983;DHT22;31711;47.158;7.346;2024-01-30T04:55:00;0.10;99.90
45983;DHT22;31711;47.158;7.346;2024-01-30T04:57:26;0.10;99.90
45983;DHT22;31711;47.158;7.346;2024-01-30T04:59:53;0.10;99.90
45983;DHT22;31711;47.158;7.346;2024-01-30T05:02:19;0.00;99.90
45983;DHT22;31711;47.158;7.346;2024-01-30T05:04:45;0.00;99.90
45983;DHT22;31711;47.158;7.346;2024-01-30T05:07:11;0.00;99.90
45983;DHT22;31711;47.158;7.346;2024-01-30T05:09:37;0.00;99.90
45983;DHT22;31711;47.158;7.346;2024-01-30T05:12:03;0.10;99.90
45983;DHT22;31711;47.158;7.346;2024-01-30T05:14:29;0.10;99.90
45983;DHT22;31711;47.158;7.346;2024-01-30T05:16:55;0.20;99.90
45983;DHT22;31711;47.158;7.346;2024-01-30T05:19:21;0.30;99.90
45983;DHT22;31711;47.158;7.346;2024-01-30T05:21:49;0.30;99.90
45983;DHT22;31711;47.158;7.346;2024-01-30T05:24:15;0.30;99.90
45983;DHT22;31711;47.158;7.346;2024-01-30T05:26:41;0.40;99.90
45983;DHT22;31711;47.158;7.346;2024-01-30T05:29:07;0.30;99.90
45983;DHT22;31711;47.158;7.346;2024-01-30T05:31:36;0.30;99.90
45983;DHT22;31711;47.158;7.346;2024-01-30T05:34:03;0.20;99.90
45983;DHT22;31711;47.158;7.346;2024-01-30T05:36:29;0.20;99.90
45983;DHT22;31711;47.158;7.346;2024-01-30T05:38:56;0.20;99.90
45983;DHT22;31711;47.158;7.346;2024-01-30T05:41:22;0.20;99.90
45983;DHT22;31711;47.158;7.346;2024-01-30T05:43:48;0.20;99.90
45983;DHT22;31711;47.158;7.346;2024-01-30T05:46:14;0.20;99.90
45983;DHT22;31711;47.158;7.346;2024-01-30T05:48:40;0.20;99.90
45983;DHT22;31711;47.158;7.346;2024-01-30T05:51:07;0.20;99.90
45983;DHT22;31711;47.158;7.346;2024-01-30T05:53:34;0.10;99.90
45983;DHT22;31711;47.158;7.346;2024-01-30T05:56:03;0.10;99.90
45983;DHT22;31711;47.158;7.346;2024-01-30T05:58:30;0.00;99.90
45983;DHT22;31711;47.158;7.346;2024-01-30T06:00:57;0.00;99.90
45983;DHT22;31711;47.158;7.346;2024-01-30T06:03:23;-0.10;99.90
45983;DHT22;31711;47.158;7.346;2024-01-30T06:05:49;-0.20;99.90
45983;DHT22;31711;47.158;7.346;2024-01-30T06:08:15;-0.10;99.90
45983;DHT22;31711;47.158;7.346;2024-01-30T06:10:41;-0.10;99.90
45983;DHT22;31711;47.158;7.346;2024-01-30T06:13:07;0.00;99.90
45983;DHT22;31711;47.158;7.346;2024-01-30T06:15:33;0.00;99.90
45983;DHT22;31711;47.158;7.346;2024-01-30T06:17:59;0.10;99.90
45983;DHT22;31711;47.158;7.346;2024-01-30T06:20:25;0.10;99.90
45983;DHT22;31711;47.158;7.346;2024-01-30T06:22:51;0.00;99.90
45983;DHT22;31711;47.158;7.346;2024-01-30T06:25:17;-0.10;99.90
45983;DHT22;31711;47.158;7.346;2024-01-30T06:27:43;-0.10;99.90
45983;DHT22;31711;47.158;7.346;2024-01-30T06:30:09;0.00;99.90
45983;DHT22;31711;47.158;7.346;2024-01-30T06:32:36;0.00;99.90
45983;DHT22;31711;47.158;7.346;2024-01-30T06:35:02;0.10;99.90
45983;DHT22;31711;47.158;7.346;2024-01-30T06:37:28;0.00;99.90
45983;DHT22;31711;47.158;7.346;2024-01-30T06:39:54;0.00;99.90
45983;DHT22;31711;47.158;7.346;2024-01-30T06:42:20;0.00;99.90
45983;DHT22;31711;47.158;7.346;2024-01-30T06:44:46;0.00;99.90
45983;DHT22;31711;47.158;7.346;2024-01-30T06:47:12;0.00;99.90
45983;DHT22;31711;47.158;7.346;2024-01-30T06:49:37;0.10;99.90
45983;DHT22;31711;47.158;7.346;2024-01-30T06:52:07;0.20;99.90
45983;DHT22;31711;47.158;7.346;2024-01-30T06:54:33;0.20;99.90
45983;DHT22;31711;47.158;7.346;2024-01-30T06:56:59;0.20;99.90
45983;DHT22;31711;47.158;7.346;2024-01-30T06:59:26;0.20;99.90
45983;DHT22;31711;47.158;7.346;2024-01-30T07:01:51;0.00;99.90
45983;DHT22;31711;47.158;7.346;2024-01-30T07:04:18;0.20;99.90
45983;DHT22;31711;47.158;7.346;2024-01-30T07:06:44;0.20;99.90
45983;DHT22;31711;47.158;7.346;2024-01-30T07:09:10;0.30;99.90
45983;DHT22;31711;47.158;7.346;2024-01-30T07:11:36;0.20;99.90
45983;DHT22;31711;47.158;7.346;2024-01-30T07:14:02;0.20;99.90
45983;DHT22;31711;47.158;7.346;2024-01-30T07:16:30;0.20;99.90
45983;DHT22;31711;47.158;7.346;2024-01-30T07:18:56;0.20;99.90
45983;DHT22;31711;47.158;7.346;2024-01-30T07:21:22;0.20;99.90
45983;DHT22;31711;47.158;7.346;2024-01-30T07:23:54;0.20;99.90
45983;DHT22;31711;47.158;7.346;2024-01-30T07:26:20;0.10;99.90
45983;DHT22;31711;47.158;7.346;2024-01-30T07:28:46;0.00;99.90
45983;DHT22;31711;47.158;7.346;2024-01-30T07:31:13;0.00;99.90
45983;DHT22;31711;47.158;7.346;2024-01-30T07:33:38;0.00;99.90
45983;DHT22;31711;47.158;7.346;2024-01-30T07:36:05;0.10;99.90
45983;DHT22;31711;47.158;7.346;2024-01-30T07:38:34;0.10;99.90
45983;DHT22;31711;47.158;7.346;2024-01-30T07:41:00;0.00;99.90
45983;DHT22;31711;47.158;7.346;2024-01-30T07:43:26;0.00;99.90
45983;DHT22;31711;47.158;7.346;2024-01-30T07:45:52;0.10;99.90
45983;DHT22;31711;47.158;7.346;2024-01-30T07:48:18;0.20;99.90
45983;DHT22;31711;47.158;7.346;2024-01-30T07:50:44;0.20;99.90
45983;DHT22;31711;47.158;7.346;2024-01-30T07:53:10;0.20;99.90
45983;DHT22;31711;47.158;7.346;2024-01-30T07:55:36;0.20;99.90
45983;DHT22;31711;47.158;7.346;2024-01-30T07:58:03;0.00;99.90
45983;DHT22;31711;47.158;7.346;2024-01-30T08:00:30;0.00;99.90
45983;DHT22;31711;47.158;7.346;2024-01-30T08:02:56;0.00;99.90
45983;DHT22;31711;47.158;7.346;2024-01-30T08:05:23;0.10;99.90
45983;DHT22;31711;47.158;7.346;2024-01-30T08:07:49;0.20;99.90
45983;DHT22;31711;47.158;7.346;2024-01-30T08:10:15;0.30;99.90
45983;DHT22;31711;47.158;7.346;2024-01-30T08:12:43;0.40;99.90
45983;DHT22;31711;47.158;7.346;2024-01-30T08:15:11;0.40;99.90
45983;DHT22;31711;47.158;7.346;2024-01-30T08:17:37;0.40;99.90
45983;DHT22;31711;47.158;7.346;2024-01-30T08:20:04;0.40;99.90
45983;DHT22;31711;47.158;7.346;2024-01-30T08:22:30;0.40;99.90
45983;DHT22;31711;47.158;7.346;2024-01-30T08:24:56;0.50;99.90
45983;DHT22;31711;47.158;7.346;2024-01-30T08:27:22;0.40;99.90
45983;DHT22;31711;47.158;7.346;2024-01-30T08:29:48;0.40;99.90
45983;DHT22;31711;47.158;7.346;2024-01-30T08:32:16;0.40;99.90
45983;DHT22;31711;47.158;7.346;2024-01-30T08:34:42;0.50;99.90
45983;DHT22;31711;47.158;7.346;2024-01-30T08:37:08;0.50;99.90
45983;DHT22;31711;47.158;7.346;2024-01-30T08:39:34;0.60;99.90
45983;DHT22;31711;47.158;7.346;2024-01-30T08:42:00;0.60;99.90
45983;DHT22;31711;47.158;7.346;2024-01-30T08:44:26;0.60;99.90
45983;DHT22;31711;47.158;7.346;2024-01-30T08:46:53;0.70;99.90
45983;DHT22;31711;47.158;7.346;2024-01-30T08:49:19;0.70;99.90
45983;DHT22;31711;47.158;7.346;2024-01-30T08:51:47;0.90;99.90
45983;DHT22;31711;47.158;7.346;2024-01-30T08:54:13;0.90;99.90
45983;DHT22;31711;47.158;7.346;2024-01-30T08:56:39;0.90;99.90
45983;DHT22;31711;47.158;7.346;2024-01-30T08:59:05;0.80;99.90
45983;DHT22;31711;47.158;7.346;2024-01-30T09:01:31;0.80;99.90
45983;DHT22;31711;47.158;7.346;2024-01-30T09:03:57;0.70;99.90
45983;DHT22;31711;47.158;7.346;2024-01-30T09:06:23;0.80;99.90
45983;DHT22;31711;47.158;7.346;2024-01-30T09:08:50;0.70;99.90
45983;DHT22;31711;47.158;7.346;2024-01-30T09:11:16;0.80;99.90
45983;DHT22;31711;47.158;7.346;2024-01-30T09:13:42;0.80;99.90
45983;DHT22;31711;47.158;7.346;2024-01-30T09:16:09;0.90;99.90
45983;DHT22;31711;47.158;7.346;2024-01-30T09:18:35;1.10;99.90
45983;DHT22;31711;47.158;7.346;2024-01-30T09:21:01;1.20;99.90
45983;DHT22;31711;47.158;7.346;2024-01-30T09:23:27;1.40;99.90
45983;DHT22;31711;47.158;7.346;2024-01-30T09:25:53;1.40;99.90
45983;DHT22;31711;47.158;7.346;2024-01-30T09:28:19;1.20;99.90
45983;DHT22;31711;47.158;7.346;2024-01-30T09:30:45;1.10;99.90
45983;DHT22;31711;47.158;7.346;2024-01-30T09:33:11;1.10;99.90
45983;DHT22;31711;47.158;7.346;2024-01-30T09:35:37;1.00;99.90
45983;DHT22;31711;47.158;7.346;2024-01-30T09:38:03;1.00;99.90
45983;DHT22;31711;47.158;7.346;2024-01-30T09:40:29;1.00;99.90
45983;DHT22;31711;47.158;7.346;2024-01-30T09:42:55;1.20;99.90
45983;DHT22;31711;47.158;7.346;2024-01-30T09:45:26;1.40;99.90
45983;DHT22;31711;47.158;7.346;2024-01-30T09:47:52;1.60;99.90
45983;DHT22;31711;47.158;7.346;2024-01-30T09:50:19;1.70;99.90
45983;DHT22;31711;47.158;7.346;2024-01-30T09:52:46;1.80;99.90
45983;DHT22;31711;47.158;7.346;2024-01-30T09:55:13;1.70;99.90
45983;DHT22;31711;47.158;7.346;2024-01-30T09:57:41;1.80;99.90
45983;DHT22;31711;47.158;7.346;2024-01-30T10:00:08;1.90;99.90
45983;DHT22;31711;47.158;7.346;2024-01-30T10:02:38;2.10;99.90
45983;DHT22;31711;47.158;7.346;2024-01-30T10:05:05;2.10;99.90
45983;DHT22;31711;47.158;7.346;2024-01-30T10:07:31;2.30;99.90
45983;DHT22;31711;47.158;7.346;2024-01-30T10:09:57;2.60;99.90
45983;DHT22;31711;47.158;7.346;2024-01-30T10:12:25;2.80;99.90
45983;DHT22;31711;47.158;7.346;2024-01-30T10:14:51;2.80;99.90
45983;DHT22;31711;47.158;7.346;2024-01-30T10:17:17;3.00;99.90
45983;DHT22;31711;47.158;7.346;2024-01-30T10:19:43;2.90;99.90
45983;DHT22;31711;47.158;7.346;2024-01-30T10:22:10;2.70;99.90
45983;DHT22;31711;47.158;7.346;2024-01-30T10:24:36;2.70;99.90
45983;DHT22;31711;47.158;7.346;2024-01-30T10:27:03;2.70;99.90
45983;DHT22;31711;47.158;7.346;2024-01-30T10:29:29;2.90;99.90
45983;DHT22;31711;47.158;7.346;2024-01-30T10:32:02;2.90;99.90
45983;DHT22;31711;47.158;7.346;2024-01-30T10:34:29;2.90;99.90
45983;DHT22;31711;47.158;7.346;2024-01-30T10:37:00;2.70;99.90
45983;DHT22;31711;47.158;7.346;2024-01-30T10:39:32;2.70;99.90
45983;DHT22;31711;47.158;7.346;2024-01-30T10:42:04;2.80;99.90
45983;DHT22;31711;47.158;7.346;2024-01-30T10:44:37;3.10;99.90
45983;DHT22;31711;47.158;7.346;2024-01-30T10:47:08;3.50;99.90
45983;DHT22;31711;47.158;7.346;2024-01-30T10:49:37;3.80;99.90
45983;DHT22;31711;47.158;7.346;2024-01-30T10:52:05;3.80;99.90
45983;DHT22;31711;47.158;7.346;2024-01-30T10:54:31;3.70;99.90
45983;DHT22;31711;47.158;7.346;2024-01-30T10:57:00;3.90;99.90
45983;DHT22;31711;47.158;7.346;2024-01-30T10:59:28;4.10;99.90
45983;DHT22;31711;47.158;7.346;2024-01-30T11:01:54;4.50;99.90
45983;DHT22;31711;47.158;7.346;2024-01-30T11:04:20;4.80;99.90
45983;DHT22;31711;47.158;7.346;2024-01-30T11:06:49;4.80;99.90
45983;DHT22;31711;47.158;7.346;2024-01-30T11:09:17;4.80;99.90
45983;DHT22;31711;47.158;7.346;2024-01-30T11:11:56;5.10;99.90
45983;DHT22;31711;47.158;7.346;2024-01-30T11:14:31;5.00;99.90
45983;DHT22;31711;47.158;7.346;2024-01-30T11:16:58;5.30;99.90
45983;DHT22;31711;47.158;7.346;2024-01-30T11:19:25;5.50;99.90
45983;DHT22;31711;47.158;7.346;2024-01-30T11:21:53;5.50;99.90
45983;DHT22;31711;47.158;7.346;2024-01-30T11:24:20;5.60;99.90
45983;DHT22;31711;47.158;7.346;2024-01-30T11:26:56;5.70;99.90
45983;DHT22;31711;47.158;7.346;2024-01-30T11:29:25;5.60;99.90
45983;DHT22;31711;47.158;7.346;2024-01-30T11:31:57;5.70;99.90
45983;DHT22;31711;47.158;7.346;2024-01-30T11:34:24;5.80;99.90
45983;DHT22;31711;47.158;7.346;2024-01-30T11:36:56;6.00;99.90
45983;DHT22;31711;47.158;7.346;2024-01-30T11:39:31;6.40;99.90
45983;DHT22;31711;47.158;7.346;2024-01-30T11:41:58;6.50;99.90
45983;DHT22;31711;47.158;7.346;2024-01-30T11:44:25;6.40;99.90
45983;DHT22;31711;47.158;7.346;2024-01-30T11:46:52;6.60;99.90
45983;DHT22;31711;47.158;7.346;2024-01-30T11:49:18;6.90;99.90
45983;DHT22;31711;47.158;7.346;2024-01-30T11:51:47;6.90;99.90
45983;DHT22;31711;47.158;7.346;2024-01-30T11:54:15;7.10;99.90
45983;DHT22;31711;47.158;7.346;2024-01-30T11:56:42;7.10;99.90
45983;DHT22;31711;47.158;7.346;2024-01-30T11:59:09;7.30;99.90
45983;DHT22;31711;47.158;7.346;2024-01-30T12:01:35;7.30;99.90
45983;DHT22;31711;47.158;7.346;2024-01-30T12:04:01;7.40;99.90
45983;DHT22;31711;47.158;7.346;2024-01-30T12:06:28;7.60;99.90
45983;DHT22;31711;47.158;7.346;2024-01-30T12:09:02;7.70;99.90
45983;DHT22;31711;47.158;7.346;2024-01-30T12:11:31;7.80;99.90
45983;DHT22;31711;47.158;7.346;2024-01-30T12:13:57;7.80;99.90
45983;DHT22;31711;47.158;7.346;2024-01-30T12:16:24;8.00;99.90
45983;DHT22;31711;47.158;7.346;2024-01-30T12:18:59;8.10;99.90
45983;DHT22;31711;47.158;7.346;2024-01-30T12:21:26;8.20;99.90
45983;DHT22;31711;47.158;7.346;2024-01-30T12:23:52;8.40;99.90
45983;DHT22;31711;47.158;7.346;2024-01-30T12:26:18;8.30;99.90
45983;DHT22;31711;47.158;7.346;2024-01-30T12:28:50;8.30;99.90
45983;DHT22;31711;47.158;7.346;2024-01-30T12:31:16;8.50;99.90
45983;DHT22;31711;47.158;7.346;2024-01-30T12:33:42;8.40;99.90
45983;DHT22;31711;47.158;7.346;2024-01-30T12:36:08;8.40;99.90
45983;DHT22;31711;47.158;7.346;2024-01-30T12:38:34;8.70;99.90
45983;DHT22;31711;47.158;7.346;2024-01-30T12:41:00;8.60;99.90
45983;DHT22;31711;47.158;7.346;2024-01-30T12:43:26;8.60;99.90
45983;DHT22;31711;47.158;7.346;2024-01-30T12:45:53;8.70;99.90
45983;DHT22;31711;47.158;7.346;2024-01-30T12:48:19;8.70;99.90
45983;DHT22;31711;47.158;7.346;2024-01-30T12:50:45;8.80;99.90
45983;DHT22;31711;47.158;7.346;2024-01-30T12:53:11;8.90;99.90
45983;DHT22;31711;47.158;7.346;2024-01-30T12:55:38;9.00;99.90
45983;DHT22;31711;47.158;7.346;2024-01-30T12:58:04;9.10;99.90
45983;DHT22;31711;47.158;7.346;2024-01-30T13:00:31;9.10;99.90
45983;DHT22;31711;47.158;7.346;2024-01-30T13:02:58;9.00;99.90
45983;DHT22;31711;47.158;7.346;2024-01-30T13:05:24;9.00;99.90
45983;DHT22;31711;47.158;7.346;2024-01-30T13:07:50;8.90;99.90
45983;DHT22;31711;47.158;7.346;2024-01-30T13:10:17;9.00;99.90
45983;DHT22;31711;47.158;7.346;2024-01-30T13:12:43;9.10;99.90
45983;DHT22;31711;47.158;7.346;2024-01-30T13:15:09;9.20;99.90
45983;DHT22;31711;47.158;7.346;2024-01-30T13:17:37;9.20;99.90
45983;DHT22;31711;47.158;7.346;2024-01-30T13:20:03;9.30;99.90
45983;DHT22;31711;47.158;7.346;2024-01-30T13:22:29;9.10;99.90
45983;DHT22;31711;47.158;7.346;2024-01-30T13:24:55;9.10;99.90
45983;DHT22;31711;47.158;7.346;2024-01-30T13:27:21;9.20;99.90
45983;DHT22;31711;47.158;7.346;2024-01-30T13:29:47;9.20;99.90
45983;DHT22;31711;47.158;7.346;2024-01-30T13:32:13;9.30;99.90
45983;DHT22;31711;47.158;7.346;2024-01-30T13:34:39;9.40;99.90
45983;DHT22;31711;47.158;7.346;2024-01-30T13:37:06;9.50;99.90
45983;DHT22;31711;47.158;7.346;2024-01-30T13:39:32;9.60;99.90
45983;DHT22;31711;47.158;7.346;2024-01-30T13:41:58;9.50;99.90
45983;DHT22;31711;47.158;7.346;2024-01-30T13:44:24;9.60;99.90
45983;DHT22;31711;47.158;7.346;2024-01-30T13:46:50;9.40;99.90
45983;DHT22;31711;47.158;7.346;2024-01-30T13:49:16;9.50;99.90
45983;DHT22;31711;47.158;7.346;2024-01-30T13:51:42;9.40;99.90
45983;DHT22;31711;47.158;7.346;2024-01-30T13:54:08;9.50;99.90
45983;DHT22;31711;47.158;7.346;2024-01-30T13:56:34;9.60;99.90
45983;DHT22;31711;47.158;7.346;2024-01-30T13:59:00;9.60;99.90
45983;DHT22;31711;47.158;7.346;2024-01-30T14:01:31;9.60;99.90
45983;DHT22;31711;47.158;7.346;2024-01-30T14:03:56;9.70;99.90
45983;DHT22;31711;47.158;7.346;2024-01-30T14:06:22;9.80;99.90
45983;DHT22;31711;47.158;7.346;2024-01-30T14:08:52;9.70;99.90
45983;DHT22;31711;47.158;7.346;2024-01-30T14:11:18;9.50;99.90
45983;DHT22;31711;47.158;7.346;2024-01-30T14:13:44;9.30;99.90
45983;DHT22;31711;47.158;7.346;2024-01-30T14:16:10;9.30;99.90
45983;DHT22;31711;47.158;7.346;2024-01-30T14:18:36;9.10;99.90
45983;DHT22;31711;47.158;7.346;2024-01-30T14:21:02;9.20;99.90
45983;DHT22;31711;47.158;7.346;2024-01-30T14:23:28;9.30;99.90
45983;DHT22;31711;47.158;7.346;2024-01-30T14:26:05;9.40;99.90
45983;DHT22;31711;47.158;7.346;2024-01-30T14:28:31;9.30;99.90
45983;DHT22;31711;47.158;7.346;2024-01-30T14:30:57;9.10;99.90
45983;DHT22;31711;47.158;7.346;2024-01-30T14:33:23;9.20;99.90
45983;DHT22;31711;47.158;7.346;2024-01-30T14:35:49;9.00;99.90
45983;DHT22;31711;47.158;7.346;2024-01-30T14:38:16;8.80;99.90
45983;DHT22;31711;47.158;7.346;2024-01-30T14:40:42;8.70;99.90
45983;DHT22;31711;47.158;7.346;2024-01-30T14:43:08;8.70;99.90
45983;DHT22;31711;47.158;7.346;2024-01-30T14:45:34;8.80;99.90
45983;DHT22;31711;47.158;7.346;2024-01-30T14:48:00;8.80;99.90
45983;DHT22;31711;47.158;7.346;2024-01-30T14:50:26;8.80;99.90
45983;DHT22;31711;47.158;7.346;2024-01-30T14:52:54;8.80;99.90
45983;DHT22;31711;47.158;7.346;2024-01-30T14:55:20;8.70;99.90
45983;DHT22;31711;47.158;7.346;2024-01-30T14:57:46;8.70;99.90
45983;DHT22;31711;47.158;7.346;2024-01-30T15:00:12;8.70;99.90
45983;DHT22;31711;47.158;7.346;2024-01-30T15:02:39;8.80;99.90
45983;DHT22;31711;47.158;7.346;2024-01-30T15:05:06;8.80;99.90
45983;DHT22;31711;47.158;7.346;2024-01-30T15:07:32;8.70;99.90
45983;DHT22;31711;47.158;7.346;2024-01-30T15:09:58;8.70;99.90
45983;DHT22;31711;47.158;7.346;2024-01-30T15:12:24;8.60;99.90
45983;DHT22;31711;47.158;7.346;2024-01-30T15:14:50;8.50;99.90
45983;DHT22;31711;47.158;7.346;2024-01-30T15:17:18;8.50;99.90
45983;DHT22;31711;47.158;7.346;2024-01-30T15:19:44;8.50;99.90
45983;DHT22;31711;47.158;7.346;2024-01-30T15:22:10;8.50;99.90
45983;DHT22;31711;47.158;7.346;2024-01-30T15:24:36;8.40;99.90
45983;DHT22;31711;47.158;7.346;2024-01-30T15:27:02;8.40;99.90
45983;DHT22;31711;47.158;7.346;2024-01-30T15:29:28;8.30;99.90
45983;DHT22;31711;47.158;7.346;2024-01-30T15:31:54;8.40;99.90
45983;DHT22;31711;47.158;7.346;2024-01-30T15:34:20;8.30;99.90
45983;DHT22;31711;47.158;7.346;2024-01-30T15:36:46;8.30;99.90
45983;DHT22;31711;47.158;7.346;2024-01-30T15:39:14;8.20;99.90
45983;DHT22;31711;47.158;7.346;2024-01-30T15:41:41;8.20;99.90